createdAt,value
2022-10-17T00:01:48.999Z,9.02
2022-10-17T00:04:16.419Z,5.35
2022-10-17T00:06:43.695Z,4.35
2022-10-17T00:09:10.966Z,4.22
2022-10-17T00:11:38.048Z,4.72
2022-10-17T00:14:05.259Z,7.53
2022-10-17T00:16:34.207Z,4.32
2022-10-17T00:21:28.447Z,11.48
2022-10-17T00:23:55.947Z,6.00
2022-10-17T00:26:23.498Z,5.57
2022-10-17T00:28:51.304Z,4.70
2022-10-17T00:31:19.531Z,4.93
2022-10-17T00:33:47.129Z,4.88
2022-10-17T00:36:18.667Z,4.82
2022-10-17T00:38:46.719Z,6.45
2022-10-17T00:41:15.579Z,4.95
2022-10-17T00:44:02.368Z,5.78
2022-10-17T00:46:36.410Z,5.43
2022-10-17T00:49:06.135Z,4.35
2022-10-17T00:51:39.199Z,8.68
2022-10-17T00:54:06.917Z,6.07
2022-10-17T00:56:34.393Z,3.80
2022-10-17T00:59:01.931Z,3.97
2022-10-17T01:01:29.120Z,4.47
2022-10-17T01:03:56.216Z,5.78
2022-10-17T01:06:23.344Z,5.70
2022-10-17T01:08:50.440Z,5.38
2022-10-17T01:11:31.166Z,4.28
2022-10-17T01:14:10.001Z,3.97
2022-10-17T01:16:42.957Z,5.18
2022-10-17T01:19:13.116Z,4.65
2022-10-17T01:21:49.286Z,10.13
2022-10-17T01:24:35.071Z,5.32
2022-10-17T01:27:04.995Z,4.88
2022-10-17T01:29:50.946Z,4.28
2022-10-17T01:32:20.482Z,5.18
2022-10-17T01:34:58.913Z,4.97
2022-10-17T01:37:33.247Z,4.93
2022-10-17T01:40:06.472Z,5.72
2022-10-17T01:42:44.824Z,5.20
2022-10-17T01:45:35.375Z,7.53
2022-10-17T01:48:05.169Z,4.65
2022-10-17T01:50:34.964Z,5.32
2022-10-17T01:53:04.327Z,4.90
2022-10-17T01:55:36.295Z,5.03
2022-10-17T01:58:06.922Z,4.97
2022-10-17T02:00:35.599Z,4.50
2022-10-17T02:03:05.547Z,6.50
2022-10-17T02:05:34.273Z,4.53
2022-10-17T02:08:01.364Z,4.85
2022-10-17T02:10:48.699Z,4.30
2022-10-17T02:15:54.966Z,5.70
2022-10-17T02:18:44.833Z,4.63
2022-10-17T02:21:23.760Z,5.85
2022-10-17T02:24:02.892Z,4.88
2022-10-17T02:26:44.483Z,6.78
2022-10-17T02:29:20.183Z,6.70
2022-10-17T02:32:13.783Z,7.20
2022-10-17T02:34:43.637Z,5.68
2022-10-17T02:37:12.338Z,5.63
2022-10-17T02:39:40.516Z,7.00
2022-10-17T02:42:09.949Z,5.22
2022-10-17T02:44:38.455Z,9.13
2022-10-17T02:47:25.868Z,5.35
2022-10-17T02:52:25.416Z,6.10
2022-10-17T02:54:55.129Z,8.18
2022-10-17T02:57:22.186Z,5.65
2022-10-17T02:59:50.129Z,5.85
2022-10-17T03:02:17.310Z,5.55
2022-10-17T03:04:45.060Z,5.32
2022-10-17T03:07:12.146Z,6.40
2022-10-17T03:09:39.263Z,5.70
2022-10-17T03:12:06.487Z,5.55
2022-10-17T03:14:33.580Z,6.60
2022-10-17T03:17:00.665Z,5.65
2022-10-17T03:19:27.842Z,5.00
2022-10-17T03:21:54.984Z,5.20
2022-10-17T03:24:22.057Z,5.63
2022-10-17T03:26:49.141Z,6.50
2022-10-17T03:29:16.276Z,6.28
2022-10-17T03:31:43.343Z,6.55
2022-10-17T03:34:10.463Z,6.80
2022-10-17T03:36:37.545Z,9.10
2022-10-17T03:39:04.773Z,4.82
2022-10-17T03:41:31.981Z,6.25
2022-10-17T03:43:59.082Z,6.78
2022-10-17T03:46:26.159Z,6.78
2022-10-17T03:48:53.312Z,13.95
2022-10-17T03:51:20.517Z,7.75
2022-10-17T03:53:47.778Z,17.40
2022-10-17T03:56:14.941Z,12.25
2022-10-17T03:58:42.539Z,6.43
2022-10-17T04:01:11.028Z,9.10
2022-10-17T04:03:38.217Z,5.35
2022-10-17T04:06:05.765Z,8.85
2022-10-17T04:08:33.465Z,7.63
2022-10-17T04:11:01.266Z,7.20
2022-10-17T04:13:29.114Z,5.40
2022-10-17T04:16:06.540Z,5.47
2022-10-17T04:18:33.701Z,8.60
2022-10-17T04:21:04.526Z,6.95
2022-10-17T04:23:31.689Z,6.80
2022-10-17T04:26:00.570Z,5.53
2022-10-17T04:28:28.387Z,11.15
2022-10-17T04:30:58.878Z,6.95
2022-10-17T04:33:26.133Z,6.63
2022-10-17T04:35:57.662Z,4.90
2022-10-17T04:38:27.734Z,6.72
2022-10-17T04:40:58.091Z,5.55
2022-10-17T04:43:25.174Z,5.38
2022-10-17T04:45:52.275Z,16.20
2022-10-17T04:48:19.360Z,4.90
2022-10-17T04:50:56.259Z,5.90
2022-10-17T04:53:24.317Z,5.07
2022-10-17T04:55:51.536Z,7.38
2022-10-17T04:58:18.709Z,5.38
2022-10-17T05:00:46.131Z,6.22
2022-10-17T05:03:13.363Z,4.05
2022-10-17T05:05:41.331Z,5.38
2022-10-17T05:08:09.620Z,5.22
2022-10-17T05:10:41.068Z,5.25
2022-10-17T05:13:08.629Z,6.65
2022-10-17T05:15:36.183Z,6.97
2022-10-17T05:18:03.833Z,6.60
2022-10-17T05:20:31.154Z,5.85
2022-10-17T05:23:01.190Z,8.38
2022-10-17T05:25:28.285Z,5.82
2022-10-17T05:27:55.387Z,7.35
2022-10-17T05:30:22.647Z,5.75
2022-10-17T05:32:52.725Z,5.35
2022-10-17T05:35:19.792Z,5.68
2022-10-17T05:37:47.098Z,6.63
2022-10-17T05:40:14.229Z,5.57
2022-10-17T05:42:41.376Z,6.40
2022-10-17T05:45:08.720Z,4.97
2022-10-17T05:47:35.819Z,5.63
2022-10-17T05:50:02.939Z,6.35
2022-10-17T05:52:30.401Z,5.13
2022-10-17T05:54:57.680Z,4.78
2022-10-17T05:57:27.840Z,5.68
2022-10-17T05:59:55.012Z,6.38
2022-10-17T06:02:22.211Z,5.07
2022-10-17T06:04:50.165Z,6.10
2022-10-17T06:07:17.638Z,5.30
2022-10-17T06:12:16.793Z,5.80
2022-10-17T06:14:43.919Z,6.85
2022-10-17T06:17:15.742Z,6.40
2022-10-17T06:19:45.018Z,6.15
2022-10-17T06:24:39.386Z,6.60
2022-10-17T06:27:10.932Z,7.50
2022-10-17T06:29:39.374Z,6.28
2022-10-17T06:32:08.652Z,6.47
2022-10-17T06:34:38.317Z,4.85
2022-10-17T06:37:05.484Z,5.13
2022-10-17T06:39:35.864Z,6.65
2022-10-17T06:42:04.285Z,6.00
2022-10-17T06:44:32.086Z,5.78
2022-10-17T06:47:02.207Z,7.10
2022-10-17T06:49:29.793Z,8.45
2022-10-17T06:51:57.009Z,6.63
2022-10-17T06:54:24.132Z,5.03
2022-10-17T06:56:51.220Z,5.22
2022-10-17T06:59:18.330Z,6.45
2022-10-17T07:01:47.095Z,9.10
2022-10-17T07:06:41.742Z,7.22
2022-10-17T07:09:09.519Z,6.82
2022-10-17T07:11:36.660Z,5.88
2022-10-17T07:14:03.900Z,10.18
2022-10-17T07:16:31.122Z,7.70
2022-10-17T07:18:58.302Z,6.65
2022-10-17T07:21:25.563Z,8.25
2022-10-17T07:23:52.665Z,5.80
2022-10-17T07:26:20.367Z,9.15
2022-10-17T07:28:48.103Z,5.97
2022-10-17T07:31:16.923Z,6.03
2022-10-17T07:33:44.281Z,4.53
2022-10-17T07:36:11.904Z,5.38
2022-10-17T07:38:39.167Z,5.50
2022-10-17T07:41:07.673Z,5.60
2022-10-17T07:43:36.426Z,5.57
2022-10-17T07:46:05.216Z,4.63
2022-10-17T07:48:32.735Z,4.93
2022-10-17T07:51:02.645Z,7.10
2022-10-17T07:53:29.756Z,9.45
2022-10-17T07:55:56.820Z,7.25
2022-10-17T07:58:24.163Z,5.75
2022-10-17T08:00:51.569Z,5.60
2022-10-17T08:03:18.743Z,5.70
2022-10-17T08:05:45.865Z,6.03
2022-10-17T08:08:13.181Z,6.10
2022-10-17T08:10:40.321Z,6.40
2022-10-17T08:13:07.473Z,5.47
2022-10-17T08:15:34.595Z,6.05
2022-10-17T08:18:02.054Z,5.63
2022-10-17T08:20:29.199Z,7.65
2022-10-17T08:22:56.302Z,6.38
2022-10-17T08:25:23.931Z,6.05
2022-10-17T08:27:51.281Z,5.28
2022-10-17T08:30:18.543Z,6.97
2022-10-17T08:32:45.885Z,7.63
2022-10-17T08:35:14.738Z,5.90
2022-10-17T08:37:41.932Z,5.72
2022-10-17T08:40:15.572Z,5.68
2022-10-17T08:42:45.522Z,8.25
2022-10-17T08:45:31.489Z,6.43
2022-10-17T08:48:00.253Z,4.65
2022-10-17T08:50:33.659Z,5.35
2022-10-17T08:53:10.950Z,5.28
2022-10-17T08:55:44.617Z,5.47
2022-10-17T08:58:33.207Z,5.97
2022-10-17T09:01:03.246Z,9.23
2022-10-17T09:03:53.678Z,8.32
2022-10-17T09:06:31.448Z,8.00
2022-10-17T09:09:20.323Z,4.35
2022-10-17T09:11:53.277Z,5.38
2022-10-17T09:14:26.312Z,6.53
2022-10-17T09:17:04.187Z,5.50
2022-10-17T09:19:39.782Z,4.82
2022-10-17T09:22:10.209Z,7.78
2022-10-17T09:24:44.954Z,6.90
2022-10-17T09:27:24.304Z,6.22
2022-10-17T09:29:53.968Z,5.63
2022-10-17T09:32:23.775Z,6.35
2022-10-17T09:34:51.990Z,5.78
2022-10-17T09:37:19.456Z,5.65
2022-10-17T09:39:46.847Z,8.63
2022-10-17T09:42:15.709Z,6.80
2022-10-17T09:44:48.971Z,5.30
2022-10-17T09:47:16.216Z,6.78
2022-10-17T09:49:44.914Z,6.05
2022-10-17T09:52:16.845Z,4.30
2022-10-17T09:54:45.925Z,4.82
2022-10-17T09:57:13.810Z,5.45
2022-10-17T09:59:40.946Z,5.32
2022-10-17T10:02:18.148Z,6.68
2022-10-17T10:05:06.375Z,6.10
2022-10-17T10:07:35.692Z,5.03
2022-10-17T10:14:58.191Z,6.55
2022-10-17T10:17:34.586Z,4.97
2022-10-17T10:20:02.414Z,6.15
2022-10-17T10:22:29.721Z,6.32
2022-10-17T10:25:17.406Z,7.20
2022-10-17T10:27:45.613Z,4.80
2022-10-17T10:30:24.392Z,5.63
2022-10-17T10:32:51.819Z,5.15
2022-10-17T10:35:23.772Z,5.57
2022-10-17T10:37:54.217Z,4.88
2022-10-17T10:40:23.512Z,5.03
2022-10-17T10:42:51.738Z,5.43
2022-10-17T10:45:35.941Z,5.20
2022-10-17T10:48:13.648Z,6.35
2022-10-17T10:50:46.242Z,4.88
2022-10-17T10:53:34.980Z,7.65
2022-10-17T10:56:06.353Z,4.50
2022-10-17T10:58:41.799Z,5.18
2022-10-17T11:01:18.305Z,5.85
2022-10-17T11:04:11.896Z,5.00
2022-10-17T11:09:24.253Z,5.65
2022-10-17T11:12:23.979Z,6.10
2022-10-17T11:14:59.253Z,4.65
2022-10-17T11:17:30.549Z,4.78
2022-10-17T11:20:10.303Z,4.85
2022-10-17T11:22:43.127Z,4.35
2022-10-17T11:25:13.023Z,6.78
2022-10-17T11:27:40.146Z,4.40
2022-10-17T11:30:07.512Z,3.78
2022-10-17T11:32:43.683Z,4.43
2022-10-17T11:35:28.009Z,4.85
2022-10-17T11:38:09.444Z,4.30
2022-10-17T11:40:39.951Z,5.75
2022-10-17T11:43:12.409Z,4.13
2022-10-17T11:45:45.370Z,4.43
2022-10-17T11:48:36.486Z,6.10
2022-10-17T11:54:05.392Z,5.20
2022-10-17T11:56:42.756Z,4.93
2022-10-17T11:59:10.063Z,4.88
2022-10-17T12:01:42.803Z,4.82
2022-10-17T12:04:17.990Z,4.47
2022-10-17T12:06:57.563Z,4.47
2022-10-17T12:09:45.951Z,5.47
2022-10-17T12:12:24.892Z,4.50
2022-10-17T12:14:51.996Z,5.40
2022-10-17T12:17:39.089Z,5.18
2022-10-17T12:20:23.526Z,4.03
2022-10-17T12:22:51.665Z,5.28
2022-10-17T12:25:20.792Z,4.30
2022-10-17T12:27:50.079Z,5.63
2022-10-17T12:30:27.229Z,4.70
2022-10-17T12:33:08.400Z,4.75
2022-10-17T12:38:17.775Z,5.38
2022-10-17T12:40:49.061Z,4.97
2022-10-17T12:43:16.353Z,5.15
2022-10-17T12:45:47.579Z,6.10
2022-10-17T12:48:34.655Z,4.55
2022-10-17T12:54:12.095Z,4.53
2022-10-17T12:56:46.767Z,4.93
2022-10-17T12:59:18.465Z,4.68
2022-10-17T13:01:47.848Z,4.93
2022-10-17T13:04:15.647Z,5.07
2022-10-17T13:06:48.048Z,5.20
2022-10-17T13:09:28.975Z,6.22
2022-10-17T13:11:57.564Z,4.20
2022-10-17T13:14:26.020Z,4.63
2022-10-17T13:16:54.806Z,4.32
2022-10-17T13:19:24.258Z,4.13
2022-10-17T13:22:06.288Z,6.10
2022-10-17T13:24:35.586Z,3.90
2022-10-17T13:27:03.283Z,5.20
2022-10-17T13:29:32.030Z,4.80
2022-10-17T13:32:04.083Z,4.70
2022-10-17T13:34:32.049Z,4.95
2022-10-17T13:37:00.840Z,5.22
2022-10-17T13:39:44.928Z,5.78
2022-10-17T13:42:20.516Z,5.05
2022-10-17T13:44:47.738Z,4.13
2022-10-17T13:47:22.317Z,6.00
2022-10-17T13:49:52.951Z,5.72
2022-10-17T13:52:24.063Z,4.28
2022-10-17T13:54:51.998Z,4.40
2022-10-17T13:57:22.321Z,5.20
2022-10-17T13:59:56.468Z,4.40
2022-10-17T14:02:26.762Z,4.72
2022-10-17T14:05:20.696Z,4.80
2022-10-17T14:08:12.974Z,5.72
2022-10-17T14:10:42.422Z,5.55
2022-10-17T14:13:18.473Z,4.72
2022-10-17T14:15:46.382Z,5.07
2022-10-17T14:18:21.183Z,6.55
2022-10-17T14:23:41.746Z,4.25
2022-10-17T14:26:13.478Z,4.55
2022-10-17T14:28:41.475Z,4.78
2022-10-17T14:31:26.102Z,4.65
2022-10-17T14:33:54.096Z,4.47
2022-10-17T14:36:22.191Z,5.90
2022-10-17T14:38:51.938Z,5.80
2022-10-17T14:44:08.038Z,5.03
2022-10-17T14:46:35.963Z,5.75
2022-10-17T14:49:05.119Z,7.88
2022-10-17T14:51:44.679Z,5.03
2022-10-17T14:54:22.866Z,4.88
2022-10-17T14:56:52.307Z,4.88
2022-10-17T14:59:51.763Z,4.35
2022-10-17T15:02:11.379Z,4.88
2022-10-17T15:04:38.527Z,7.25
2022-10-17T15:07:05.711Z,5.45
2022-10-17T15:09:33.088Z,5.05
2022-10-17T15:12:03.515Z,7.03
2022-10-17T15:14:30.648Z,5.78
2022-10-17T15:16:57.739Z,5.93
2022-10-17T15:19:24.872Z,6.43
2022-10-17T15:21:51.971Z,7.25
2022-10-17T15:24:19.126Z,6.65
2022-10-17T15:26:46.380Z,6.43
2022-10-17T15:29:16.634Z,6.78
2022-10-17T15:31:43.767Z,7.68
2022-10-17T15:34:11.018Z,6.32
2022-10-17T15:36:42.103Z,7.60
2022-10-17T15:39:10.625Z,6.97
2022-10-17T15:41:37.736Z,18.85
2022-10-17T15:44:04.930Z,6.07
2022-10-17T15:46:34.018Z,6.03
2022-10-17T15:49:10.712Z,6.18
2022-10-17T15:51:38.175Z,6.78
2022-10-17T15:54:06.275Z,8.05
2022-10-17T15:56:37.474Z,5.82
2022-10-17T15:59:11.485Z,7.25
2022-10-17T16:01:39.559Z,8.70
2022-10-17T16:04:07.020Z,6.30
2022-10-17T16:06:34.179Z,6.43
2022-10-17T16:09:01.271Z,16.83
2022-10-17T16:11:31.319Z,15.40
2022-10-17T16:14:01.044Z,19.58
2022-10-17T16:16:29.347Z,15.70
2022-10-17T16:18:56.527Z,13.18
2022-10-17T16:21:26.547Z,14.57
2022-10-17T16:23:54.212Z,15.48
2022-10-17T16:26:21.441Z,11.40
2022-10-17T16:28:48.799Z,14.98
2022-10-17T16:31:25.168Z,15.30
2022-10-17T16:33:53.640Z,13.55
2022-10-17T16:36:21.152Z,14.55
2022-10-17T16:38:49.610Z,14.55
2022-10-17T16:41:21.433Z,18.85
2022-10-17T16:43:49.177Z,14.10
2022-10-17T16:46:16.698Z,13.38
2022-10-17T16:48:44.623Z,18.63
2022-10-17T16:51:12.416Z,12.60
2022-10-17T16:53:43.635Z,11.38
2022-10-17T16:56:14.137Z,14.73
2022-10-17T16:58:42.135Z,14.13
2022-10-17T17:01:11.538Z,13.52
2022-10-17T17:03:39.282Z,16.38
2022-10-17T17:06:07.131Z,10.60
2022-10-17T17:08:35.007Z,10.90
2022-10-17T17:11:02.253Z,9.90
2022-10-17T17:13:30.115Z,10.77
2022-10-17T17:16:23.309Z,9.50
2022-10-17T17:18:54.418Z,13.77
2022-10-17T17:21:21.523Z,12.10
2022-10-17T17:23:48.622Z,10.52
2022-10-17T17:26:16.931Z,10.80
2022-10-17T17:28:44.173Z,9.95
2022-10-17T17:31:13.443Z,12.57
2022-10-17T17:33:41.185Z,9.85
2022-10-17T17:36:09.171Z,9.57
2022-10-17T17:38:36.838Z,8.30
2022-10-17T17:41:05.019Z,8.02
2022-10-17T17:43:32.144Z,11.65
2022-10-17T17:46:01.809Z,10.32
2022-10-17T17:48:28.988Z,11.52
2022-10-17T17:50:56.105Z,9.70
2022-10-17T17:53:23.397Z,9.00
2022-10-17T17:56:01.041Z,7.95
2022-10-17T17:58:28.142Z,9.80
2022-10-17T18:00:55.274Z,10.73
2022-10-17T18:03:22.480Z,9.40
2022-10-17T18:05:49.583Z,10.05
2022-10-17T18:08:16.679Z,8.15
2022-10-17T18:10:50.619Z,7.40
2022-10-17T18:13:17.746Z,8.05
2022-10-17T18:15:45.130Z,13.02
2022-10-17T18:18:12.233Z,9.07
2022-10-17T18:20:42.938Z,6.45
2022-10-17T18:23:10.649Z,8.98
2022-10-17T18:25:37.851Z,9.15
2022-10-17T18:28:05.163Z,6.93
2022-10-17T18:30:34.462Z,9.65
2022-10-17T18:33:01.768Z,9.75
2022-10-17T18:35:28.930Z,11.00
2022-10-17T18:37:57.027Z,10.40
2022-10-17T18:40:24.148Z,7.65
2022-10-17T18:42:51.244Z,6.88
2022-10-17T18:45:18.493Z,8.30
2022-10-17T18:47:47.370Z,7.50
2022-10-17T18:52:41.662Z,7.55
2022-10-17T18:55:09.013Z,7.80
2022-10-17T18:57:36.116Z,8.30
2022-10-17T19:00:03.239Z,11.15
2022-10-17T19:02:34.273Z,7.30
2022-10-17T19:05:02.970Z,10.63
2022-10-17T19:07:30.390Z,9.35
2022-10-17T19:09:57.570Z,8.13
2022-10-17T19:12:24.716Z,7.53
2022-10-17T19:17:22.744Z,8.07
2022-10-17T19:19:51.816Z,9.15
2022-10-17T19:22:18.930Z,8.23
2022-10-17T19:24:48.622Z,9.68
2022-10-17T19:27:15.732Z,12.77
2022-10-17T19:29:44.011Z,6.20
2022-10-17T19:32:15.734Z,9.85
2022-10-17T19:34:45.269Z,9.60
2022-10-17T19:37:12.471Z,9.63
2022-10-17T19:39:39.638Z,7.82
2022-10-17T19:42:07.201Z,9.38
2022-10-17T19:44:34.591Z,8.02
2022-10-17T19:47:01.731Z,8.38
2022-10-17T19:49:28.889Z,7.03
2022-10-17T19:51:55.979Z,10.90
2022-10-17T19:54:23.479Z,7.95
2022-10-17T19:56:50.611Z,8.73
2022-10-17T19:59:18.338Z,7.85
2022-10-17T20:01:46.295Z,6.65
2022-10-17T20:04:13.606Z,7.82
2022-10-17T20:06:41.621Z,8.23
2022-10-17T20:09:12.391Z,8.43
2022-10-17T20:11:42.995Z,8.20
2022-10-17T20:14:10.156Z,7.63
2022-10-17T20:16:37.567Z,8.15
2022-10-17T20:19:07.203Z,6.43
2022-10-17T20:21:39.446Z,5.28
2022-10-17T20:24:07.795Z,7.25
2022-10-17T20:26:39.421Z,7.75
2022-10-17T20:29:10.896Z,9.25
2022-10-17T20:31:38.894Z,7.18
2022-10-17T20:34:06.200Z,9.55
2022-10-17T20:36:36.884Z,7.00
2022-10-17T20:39:04.567Z,6.45
2022-10-17T20:41:31.883Z,7.22
2022-10-17T20:44:00.105Z,5.47
2022-10-17T20:46:36.934Z,6.68
2022-10-17T20:49:05.906Z,6.45
2022-10-17T20:51:33.283Z,9.27
2022-10-17T20:54:00.506Z,12.57
2022-10-17T20:56:29.322Z,5.95
2022-10-17T20:59:02.000Z,7.53
2022-10-17T21:01:29.965Z,8.75
2022-10-17T21:04:06.190Z,6.93
2022-10-17T21:06:43.331Z,6.82
2022-10-17T21:09:10.487Z,7.72
2022-10-17T21:11:37.571Z,8.13
2022-10-17T21:14:06.305Z,7.95
2022-10-17T21:16:34.027Z,6.07
2022-10-17T21:19:01.546Z,8.25
2022-10-17T21:21:30.799Z,7.97
2022-10-17T21:24:02.034Z,9.52
2022-10-17T21:26:29.439Z,11.00
2022-10-17T21:28:56.612Z,11.80
2022-10-17T21:31:24.806Z,7.18
2022-10-17T21:33:52.931Z,23.52
2022-10-17T21:36:20.664Z,9.65
2022-10-17T21:38:48.876Z,19.25
2022-10-17T21:41:16.827Z,11.52
2022-10-17T21:43:44.202Z,7.05
2022-10-17T21:46:13.058Z,7.53
2022-10-17T21:51:08.599Z,7.72
2022-10-17T21:53:36.531Z,7.68
2022-10-17T21:56:05.358Z,7.95
2022-10-17T21:58:32.744Z,7.55
2022-10-17T22:01:05.715Z,7.20
2022-10-17T22:03:36.407Z,6.68
2022-10-17T22:06:12.878Z,8.50
2022-10-17T22:08:45.940Z,8.95
2022-10-17T22:11:14.363Z,7.95
2022-10-17T22:13:41.727Z,9.10
2022-10-17T22:16:10.839Z,7.55
2022-10-17T22:18:38.324Z,11.80
2022-10-17T22:21:05.388Z,9.60
2022-10-17T22:23:32.698Z,7.13
2022-10-17T22:25:59.955Z,8.05
2022-10-17T22:28:27.437Z,8.05
2022-10-17T22:30:54.641Z,15.18
2022-10-17T22:35:53.874Z,9.70
2022-10-17T22:38:20.948Z,8.15
2022-10-17T22:40:48.087Z,9.25
2022-10-17T22:43:15.236Z,11.25
2022-10-17T22:45:42.379Z,8.88
2022-10-17T22:48:09.759Z,6.43
2022-10-17T22:50:41.696Z,8.30
2022-10-17T22:53:08.796Z,8.13
2022-10-17T22:55:35.903Z,6.40
2022-10-17T22:58:02.970Z,7.82
2022-10-17T23:00:30.204Z,8.70
2022-10-17T23:02:57.346Z,11.38
2022-10-17T23:05:24.463Z,6.72
2022-10-17T23:07:51.610Z,10.90
2022-10-17T23:10:18.720Z,6.15
2022-10-17T23:12:45.860Z,7.25
2022-10-17T23:15:12.958Z,7.43
2022-10-17T23:17:40.071Z,9.60
2022-10-17T23:20:07.445Z,7.10
2022-10-17T23:22:34.519Z,6.55
2022-10-17T23:25:01.673Z,9.63
2022-10-17T23:30:00.767Z,6.07
2022-10-17T23:32:28.176Z,6.65
2022-10-17T23:34:57.864Z,8.95
2022-10-17T23:37:24.954Z,6.43
2022-10-17T23:39:52.120Z,9.10
2022-10-17T23:42:19.251Z,8.13
2022-10-17T23:44:46.436Z,8.55
2022-10-17T23:47:13.943Z,6.75
2022-10-17T23:49:41.073Z,10.02
2022-10-17T23:52:08.245Z,8.32
2022-10-17T23:54:35.404Z,9.70
2022-10-17T23:57:02.532Z,6.75
2022-10-17T23:59:29.651Z,6.90
